Terminal Aerodrome Forecast
Issued by NWS

Home | Current Version | Previous Version | Text Only | Print | Product List | Glossary On
Versions: 1 2 3 4 5 6 7 8 9 10 11 12 13 14 15 16 17 18
000
FTUS44 KLZK 312300
TAFHOT
TAF
KHOT 312339Z 0100/0124 24006KT P6SM BKN025
     FM010400 25003KT 5SM BR OVC050
     FM011000 13004KT 3SM BR OVC015
     FM011500 16006KT P6SM OVC040
     FM012100 19008KT P6SM VCSH OVC050=

USA.gov is the U.S. government's official web portal to all federal, state and local government web resources and services.